createdAt,value
2018-03-22T00:00:31.054Z,26.30
2018-03-22T00:02:58.609Z,21.07
2018-03-22T00:05:26.038Z,28.20
2018-03-22T00:07:53.543Z,30.07
2018-03-22T00:10:21.162Z,24.40
2018-03-22T00:12:48.658Z,31.00
2018-03-22T00:15:16.194Z,28.60
2018-03-22T00:17:43.716Z,24.57
2018-03-22T00:20:11.202Z,28.93
2018-03-22T00:22:39.122Z,26.80
2018-03-22T00:25:07.029Z,28.47
2018-03-22T00:27:35.296Z,31.47
2018-03-22T00:30:03.538Z,28.43
2018-03-22T00:32:31.029Z,30.80
2018-03-22T00:34:58.510Z,30.50
2018-03-22T00:37:27.067Z,39.23
2018-03-22T00:39:54.576Z,32.00
2018-03-22T00:42:22.015Z,29.80
2018-03-22T00:44:50.256Z,26.57
2018-03-22T00:47:17.732Z,31.00
2018-03-22T00:49:45.577Z,32.37
2018-03-22T00:52:13.051Z,26.77
2018-03-22T00:54:40.608Z,35.70
2018-03-22T00:57:08.078Z,31.80
2018-03-22T00:59:35.621Z,31.37
2018-03-22T01:02:04.216Z,36.97
2018-03-22T01:04:31.641Z,28.53
2018-03-22T01:06:59.156Z,35.40
2018-03-22T01:09:26.643Z,31.93
2018-03-22T01:11:54.304Z,33.73
2018-03-22T01:14:22.008Z,26.10
2018-03-22T01:16:49.640Z,39.50
2018-03-22T01:19:17.212Z,30.43
2018-03-22T01:21:44.701Z,31.10
2018-03-22T01:24:12.617Z,28.77
2018-03-22T01:26:40.096Z,32.43
2018-03-22T01:29:08.157Z,34.37
2018-03-22T01:31:36.405Z,33.93
2018-03-22T01:34:03.904Z,33.27
2018-03-22T01:36:31.481Z,32.17
2018-03-22T01:38:59.061Z,35.40
2018-03-22T01:41:26.581Z,47.00
2018-03-22T01:43:54.159Z,33.57
2018-03-22T01:46:22.040Z,32.37
2018-03-22T01:48:49.566Z,28.60
2018-03-22T01:51:17.081Z,37.80
2018-03-22T01:53:44.708Z,32.20
2018-03-22T01:56:12.156Z,35.97
2018-03-22T01:58:39.804Z,37.13
2018-03-22T02:01:08.087Z,35.03
2018-03-22T02:03:35.566Z,37.33
2018-03-22T02:06:03.076Z,39.60
2018-03-22T02:08:30.560Z,34.33
2018-03-22T02:10:58.854Z,45.47
2018-03-22T02:13:27.100Z,39.70
2018-03-22T02:15:54.670Z,35.73
2018-03-22T02:18:22.266Z,34.03
2018-03-22T02:20:49.964Z,34.33
2018-03-22T02:23:18.286Z,34.40
2018-03-22T02:25:45.781Z,31.97
2018-03-22T02:28:13.292Z,33.90
2018-03-22T02:30:40.879Z,41.33
2018-03-22T02:33:09.126Z,37.07
2018-03-22T02:35:36.767Z,35.17
2018-03-22T02:38:04.263Z,37.20
2018-03-22T02:40:31.875Z,40.90
2018-03-22T02:43:00.134Z,38.50
2018-03-22T02:45:27.650Z,37.33
2018-03-22T02:47:55.903Z,32.80
2018-03-22T02:50:24.194Z,30.37
2018-03-22T02:52:52.487Z,32.30
2018-03-22T02:55:20.016Z,32.20
2018-03-22T02:57:47.517Z,34.07
2018-03-22T03:00:15.749Z,32.40
2018-03-22T03:02:43.970Z,31.87
2018-03-22T03:05:11.596Z,36.83
2018-03-22T03:07:39.101Z,27.50
2018-03-22T03:10:06.646Z,27.00
2018-03-22T03:12:34.963Z,29.87
2018-03-22T03:15:03.252Z,34.03
2018-03-22T03:17:30.773Z,30.10
2018-03-22T03:19:58.255Z,38.47
2018-03-22T03:22:25.812Z,31.70
2018-03-22T03:24:53.357Z,33.50
2018-03-22T03:27:20.846Z,31.30
2018-03-22T03:29:48.476Z,35.60
2018-03-22T03:32:16.091Z,40.60
2018-03-22T03:34:43.953Z,30.47
2018-03-22T03:37:12.252Z,34.30
2018-03-22T03:39:40.613Z,40.57
2018-03-22T03:42:08.086Z,37.73
2018-03-22T03:44:35.607Z,33.97
2018-03-22T03:47:03.231Z,39.40
2018-03-22T03:49:30.722Z,37.80
2018-03-22T03:51:58.601Z,40.40
2018-03-22T03:54:26.051Z,35.30
2018-03-22T03:56:53.593Z,45.13
2018-03-22T03:59:21.665Z,35.70
2018-03-22T04:01:49.363Z,38.67
2018-03-22T04:04:16.820Z,55.27
2018-03-22T04:06:45.179Z,39.20
2018-03-22T04:09:12.957Z,33.90
2018-03-22T04:11:40.498Z,47.53
2018-03-22T04:14:08.087Z,41.73
2018-03-22T04:16:36.372Z,41.73
2018-03-22T04:19:03.826Z,37.83
2018-03-22T04:21:31.323Z,40.90
2018-03-22T04:24:00.494Z,38.53
2018-03-22T04:26:28.136Z,38.47
2018-03-22T04:28:55.666Z,38.13
2018-03-22T04:31:23.203Z,38.47
2018-03-22T04:33:50.670Z,36.90
2018-03-22T04:36:18.220Z,45.83
2018-03-22T04:38:45.728Z,39.23
2018-03-22T04:41:13.242Z,39.70
2018-03-22T04:43:40.788Z,51.70
2018-03-22T04:46:08.315Z,35.43
2018-03-22T04:48:35.746Z,44.60
2018-03-22T04:51:03.629Z,42.03
2018-03-22T04:53:31.079Z,40.70
2018-03-22T04:55:58.693Z,42.97
2018-03-22T04:58:26.133Z,40.30
2018-03-22T05:00:54.439Z,55.43
2018-03-22T05:03:21.931Z,37.67
2018-03-22T05:05:49.485Z,39.90
2018-03-22T05:08:16.934Z,43.30
2018-03-22T05:10:44.470Z,43.50
2018-03-22T05:13:11.950Z,38.20
2018-03-22T05:15:39.484Z,44.50
2018-03-22T05:18:08.496Z,36.00
2018-03-22T05:20:36.025Z,56.40
2018-03-22T05:23:03.518Z,41.73
2018-03-22T05:25:31.786Z,44.63
2018-03-22T05:28:00.086Z,42.03
2018-03-22T05:30:28.511Z,43.83
2018-03-22T05:32:56.810Z,37.17
2018-03-22T05:35:24.354Z,38.30
2018-03-22T05:37:51.948Z,43.07
2018-03-22T05:40:19.415Z,41.23
2018-03-22T05:42:46.934Z,48.47
2018-03-22T05:45:14.606Z,47.00
2018-03-22T05:47:42.161Z,48.77
2018-03-22T05:50:09.687Z,35.40
2018-03-22T05:52:37.237Z,38.47
2018-03-22T05:55:04.692Z,45.37
2018-03-22T05:57:32.481Z,49.20
2018-03-22T05:59:59.969Z,43.03
2018-03-22T06:02:27.572Z,53.30
2018-03-22T06:04:55.856Z,45.17
2018-03-22T06:07:23.407Z,41.83
2018-03-22T06:09:51.651Z,40.63
2018-03-22T06:12:19.964Z,48.37
2018-03-22T06:14:47.837Z,45.87
2018-03-22T06:17:15.402Z,51.47
2018-03-22T06:19:44.560Z,49.30
2018-03-22T06:22:12.128Z,51.47
2018-03-22T06:24:39.693Z,52.77
2018-03-22T06:27:07.221Z,48.83
2018-03-22T06:29:34.810Z,55.67
2018-03-22T06:32:02.313Z,51.93
2018-03-22T06:34:29.832Z,58.13
2018-03-22T06:36:57.472Z,58.57
2018-03-22T06:39:25.215Z,47.83
2018-03-22T06:41:52.725Z,46.83
2018-03-22T06:44:20.260Z,62.80
2018-03-22T06:46:47.798Z,54.30
2018-03-22T06:49:16.132Z,58.17
2018-03-22T06:51:43.642Z,55.63
2018-03-22T06:54:11.881Z,57.63
2018-03-22T06:56:39.412Z,57.33
2018-03-22T06:59:06.903Z,61.23
2018-03-22T07:01:34.460Z,57.97
2018-03-22T07:04:01.926Z,60.43
2018-03-22T07:06:29.441Z,55.20
2018-03-22T07:08:56.960Z,59.67
2018-03-22T07:11:24.495Z,52.27
2018-03-22T07:13:52.015Z,53.53
2018-03-22T07:16:20.311Z,55.43
2018-03-22T07:18:48.054Z,59.93
2018-03-22T07:21:15.510Z,50.23
2018-03-22T07:23:43.828Z,61.07
2018-03-22T07:26:12.048Z,57.70
2018-03-22T07:28:39.557Z,51.23
2018-03-22T07:31:08.001Z,56.40
2018-03-22T07:33:35.459Z,57.40
2018-03-22T07:36:03.021Z,46.97
2018-03-22T07:38:30.527Z,55.20
2018-03-22T07:40:58.077Z,54.57
2018-03-22T07:43:26.349Z,55.67
2018-03-22T07:45:53.880Z,55.97
2018-03-22T07:48:21.531Z,48.23
2018-03-22T07:50:49.820Z,48.60
2018-03-22T07:53:17.351Z,51.73
2018-03-22T07:55:44.899Z,46.00
2018-03-22T07:58:12.433Z,44.57
2018-03-22T08:00:39.940Z,47.43
2018-03-22T08:03:07.723Z,48.00
2018-03-22T08:05:35.211Z,40.07
2018-03-22T08:08:03.519Z,40.77
2018-03-22T08:10:31.007Z,39.97
2018-03-22T08:12:58.557Z,40.40
2018-03-22T08:15:26.016Z,39.10
2018-03-22T08:17:53.546Z,34.00
2018-03-22T08:20:21.943Z,41.90
2018-03-22T08:22:49.398Z,42.23
2018-03-22T08:25:16.930Z,38.50
2018-03-22T08:27:44.391Z,34.73
2018-03-22T08:30:11.967Z,34.00
2018-03-22T08:32:39.596Z,28.43
2018-03-22T08:35:07.218Z,29.90
2018-03-22T08:37:34.736Z,35.40
2018-03-22T08:40:03.034Z,32.03
2018-03-22T08:42:30.579Z,25.30
2018-03-22T08:44:58.876Z,36.10
2018-03-22T08:47:27.287Z,28.77
2018-03-22T08:49:54.876Z,41.43
2018-03-22T08:52:22.284Z,29.90
2018-03-22T08:54:49.832Z,25.47
2018-03-22T08:57:18.084Z,27.73
2018-03-22T08:59:45.956Z,26.87
2018-03-22T09:02:14.126Z,28.03
2018-03-22T09:04:41.624Z,28.33
2018-03-22T09:07:09.971Z,26.27
2018-03-22T09:09:37.412Z,29.03
2018-03-22T09:12:05.746Z,27.93
2018-03-22T09:14:33.280Z,31.13
2018-03-22T09:17:00.769Z,26.80
2018-03-22T09:19:28.265Z,30.77
2018-03-22T09:21:56.549Z,33.27
2018-03-22T09:24:24.088Z,33.33
2018-03-22T09:26:51.642Z,29.70
2018-03-22T09:29:19.163Z,29.90
2018-03-22T09:31:46.728Z,26.47
2018-03-22T09:34:14.288Z,29.70
2018-03-22T09:36:41.829Z,30.40
2018-03-22T09:39:09.322Z,28.77
2018-03-22T09:41:37.067Z,33.23
2018-03-22T09:44:04.560Z,30.70
2018-03-22T09:46:32.143Z,30.37
2018-03-22T09:48:59.777Z,30.97
2018-03-22T09:51:27.256Z,27.87
2018-03-22T09:53:54.792Z,28.23
2018-03-22T09:56:22.293Z,28.50
2018-03-22T09:58:49.828Z,31.97
2018-03-22T10:01:17.292Z,29.60
2018-03-22T10:03:44.744Z,34.50
2018-03-22T10:06:12.266Z,34.93
2018-03-22T10:08:39.991Z,43.73
2018-03-22T10:11:07.468Z,43.80
2018-03-22T10:13:35.008Z,31.93
2018-03-22T10:16:03.321Z,36.17
2018-03-22T10:18:30.867Z,37.97
2018-03-22T10:20:58.331Z,32.77
2018-03-22T10:23:26.005Z,33.00
2018-03-22T10:25:53.584Z,33.77
2018-03-22T10:28:21.110Z,35.50
2018-03-22T10:30:49.201Z,32.90
2018-03-22T10:33:17.160Z,39.63
2018-03-22T10:35:45.441Z,36.53
2018-03-22T10:38:13.135Z,37.60
2018-03-22T10:40:40.701Z,36.27
2018-03-22T10:43:08.210Z,34.97
2018-03-22T10:45:36.483Z,39.93
2018-03-22T10:48:04.714Z,40.70
2018-03-22T10:50:32.198Z,42.63
2018-03-22T10:52:59.733Z,41.80
2018-03-22T10:55:27.302Z,48.17
2018-03-22T10:57:54.764Z,45.90
2018-03-22T11:00:22.352Z,44.90
2018-03-22T11:02:49.890Z,42.93
2018-03-22T11:05:17.444Z,48.97
2018-03-22T11:07:44.887Z,48.30
2018-03-22T11:10:12.401Z,48.30
2018-03-22T11:12:39.948Z,49.13
2018-03-22T11:15:08.164Z,52.77
2018-03-22T11:17:36.442Z,56.73
2018-03-22T11:20:04.853Z,57.50
2018-03-22T11:22:32.870Z,51.03
2018-03-22T11:25:00.460Z,53.70
2018-03-22T11:27:28.020Z,55.93
2018-03-22T11:29:55.626Z,58.30
2018-03-22T11:32:23.223Z,57.40
2018-03-22T11:34:50.774Z,59.03
2018-03-22T11:37:18.374Z,54.40
2018-03-22T11:39:46.564Z,60.07
2018-03-22T11:42:14.106Z,56.90
2018-03-22T11:44:41.610Z,60.13
2018-03-22T11:47:09.735Z,65.87
2018-03-22T11:49:37.740Z,61.73
2018-03-22T11:52:05.182Z,61.43
2018-03-22T11:54:32.690Z,69.10
2018-03-22T11:57:00.540Z,70.63
2018-03-22T11:59:27.952Z,68.07
2018-03-22T12:01:55.476Z,75.27
2018-03-22T12:04:23.001Z,66.33
2018-03-22T12:06:50.891Z,76.80
2018-03-22T12:09:19.132Z,68.33
2018-03-22T12:11:46.700Z,72.53
2018-03-22T12:14:14.227Z,67.83
2018-03-22T12:16:42.505Z,67.20
2018-03-22T12:19:10.016Z,65.70
2018-03-22T12:21:37.789Z,75.47
2018-03-22T12:24:06.839Z,67.67
2018-03-22T12:26:35.195Z,63.63
2018-03-22T12:29:02.687Z,69.07
2018-03-22T12:31:31.317Z,68.90
2018-03-22T12:33:59.571Z,74.00
2018-03-22T12:36:27.143Z,68.47
2018-03-22T12:38:54.671Z,65.87
2018-03-22T12:41:23.114Z,73.57
2018-03-22T12:43:50.769Z,73.40
2018-03-22T12:46:19.290Z,74.67
2018-03-22T12:48:46.823Z,74.00
2018-03-22T12:51:15.369Z,75.73
2018-03-22T12:53:43.756Z,79.47
2018-03-22T12:56:11.510Z,66.60
2018-03-22T12:58:39.036Z,70.53
2018-03-22T13:01:07.267Z,73.50
2018-03-22T13:03:34.773Z,77.50
2018-03-22T13:06:02.370Z,90.77
2018-03-22T13:08:29.873Z,77.70
2018-03-22T13:10:58.515Z,82.83
2018-03-22T13:13:26.434Z,77.73
2018-03-22T13:15:54.180Z,75.10
2018-03-22T13:18:22.458Z,80.07
2018-03-22T13:20:50.485Z,87.80
2018-03-22T13:23:18.076Z,79.40
2018-03-22T13:25:45.744Z,70.77
2018-03-22T13:28:13.229Z,75.60
2018-03-22T13:30:41.733Z,79.70
2018-03-22T13:33:09.846Z,72.67
2018-03-22T13:35:38.222Z,71.43
2018-03-22T13:38:05.737Z,70.30
2018-03-22T13:40:33.251Z,65.90
2018-03-22T13:43:01.428Z,71.33
2018-03-22T13:45:29.856Z,70.67
2018-03-22T13:47:57.615Z,71.90
2018-03-22T13:50:25.172Z,64.70
2018-03-22T13:52:52.774Z,63.27
2018-03-22T13:55:21.257Z,66.90
2018-03-22T13:57:48.768Z,61.30
2018-03-22T14:00:16.326Z,61.27
2018-03-22T14:02:44.548Z,57.70
2018-03-22T14:05:13.648Z,64.47
2018-03-22T14:07:41.957Z,65.53
2018-03-22T14:10:09.674Z,58.60
2018-03-22T14:12:37.239Z,60.90
2018-03-22T14:15:04.669Z,60.67
2018-03-22T14:17:32.180Z,65.63
2018-03-22T14:19:59.645Z,55.50
2018-03-22T14:22:27.154Z,52.83
2018-03-22T14:24:55.129Z,52.60
2018-03-22T14:27:22.621Z,53.47
2018-03-22T14:29:50.216Z,56.40
2018-03-22T14:32:17.737Z,50.57
2018-03-22T14:34:45.211Z,51.70
2018-03-22T14:37:12.739Z,62.40
2018-03-22T14:39:40.330Z,50.67
2018-03-22T14:42:07.877Z,48.47
2018-03-22T14:44:35.706Z,52.33
2018-03-22T14:47:03.207Z,52.77
2018-03-22T14:49:30.798Z,51.20
2018-03-22T14:51:59.120Z,46.13
2018-03-22T14:54:27.405Z,50.47
2018-03-22T14:56:55.035Z,50.33
2018-03-22T14:59:22.804Z,46.10
2018-03-22T15:01:50.295Z,45.60
2018-03-22T15:04:17.923Z,46.13
2018-03-22T15:06:45.449Z,44.00
2018-03-22T15:09:13.700Z,48.20
2018-03-22T15:11:44.994Z,46.37
2018-03-22T15:14:12.468Z,40.30
2018-03-22T15:16:40.066Z,45.37
2018-03-22T15:19:07.545Z,48.60
2018-03-22T15:21:35.356Z,47.50
2018-03-22T15:24:02.887Z,43.93
2018-03-22T15:26:30.379Z,40.47
2018-03-22T15:28:57.859Z,46.00
2018-03-22T15:31:25.404Z,48.20
2018-03-22T15:33:53.685Z,38.87
2018-03-22T15:36:21.167Z,41.07
2018-03-22T15:38:48.725Z,47.73
2018-03-22T15:41:16.687Z,41.60
2018-03-22T15:43:45.105Z,37.10
2018-03-22T15:46:12.613Z,32.63
2018-03-22T15:48:40.116Z,36.23
2018-03-22T15:51:07.638Z,29.33
2018-03-22T15:53:35.901Z,39.03
2018-03-22T15:56:03.451Z,34.10
2018-03-22T15:58:30.944Z,31.07
2018-03-22T16:00:59.192Z,27.57
2018-03-22T16:03:26.811Z,28.10
2018-03-22T16:05:55.616Z,37.97
2018-03-22T16:08:23.848Z,30.93
2018-03-22T16:10:51.347Z,28.60
2018-03-22T16:13:19.643Z,24.17
2018-03-22T16:15:47.102Z,21.73
2018-03-22T16:18:14.644Z,16.80
2018-03-22T16:20:42.350Z,16.53
2018-03-22T16:23:09.907Z,27.47
2018-03-22T16:25:37.711Z,18.10
2018-03-22T16:28:05.128Z,15.57
2018-03-22T16:30:32.868Z,14.17
2018-03-22T16:33:01.071Z,13.73
2018-03-22T16:35:28.559Z,20.50
2018-03-22T16:37:56.219Z,21.17
2018-03-22T16:40:23.832Z,12.13
2018-03-22T16:42:51.338Z,18.17
2018-03-22T16:45:18.912Z,14.60
2018-03-22T16:47:47.139Z,12.43
2018-03-22T16:50:14.611Z,17.13
2018-03-22T16:52:42.109Z,9.83
2018-03-22T16:55:09.644Z,11.07
2018-03-22T16:57:37.923Z,20.90
2018-03-22T17:00:06.262Z,24.03
2018-03-22T17:02:33.692Z,20.17
2018-03-22T17:05:02.041Z,15.93
2018-03-22T17:07:30.359Z,17.00
2018-03-22T17:09:57.825Z,18.33
2018-03-22T17:12:25.306Z,13.13
2018-03-22T17:14:52.820Z,13.37
2018-03-22T17:17:21.109Z,9.50
2018-03-22T17:19:48.694Z,13.30
2018-03-22T17:22:16.219Z,15.67
2018-03-22T17:24:43.765Z,13.50
2018-03-22T17:27:11.346Z,14.17
2018-03-22T17:29:39.853Z,9.40
2018-03-22T17:32:08.265Z,22.90
2018-03-22T17:34:35.785Z,8.90
2018-03-22T17:37:04.118Z,8.07
2018-03-22T17:39:32.400Z,6.90
2018-03-22T17:42:00.068Z,6.60
2018-03-22T17:44:27.547Z,15.40
2018-03-22T17:46:55.157Z,10.80
2018-03-22T17:49:22.966Z,9.37
2018-03-22T17:51:50.484Z,13.17
2018-03-22T17:54:17.982Z,13.93
2018-03-22T17:56:45.527Z,11.27
2018-03-22T17:59:13.822Z,12.00
2018-03-22T18:01:41.381Z,9.37
2018-03-22T18:04:08.868Z,8.97
2018-03-22T18:06:36.363Z,10.10
2018-03-22T18:09:04.681Z,9.67
2018-03-22T18:11:32.186Z,13.17
2018-03-22T18:13:59.762Z,11.73
2018-03-22T18:16:27.282Z,9.40
2018-03-22T18:18:55.763Z,14.27
2018-03-22T18:21:23.340Z,10.77
2018-03-22T18:23:50.773Z,11.83
2018-03-22T18:26:18.314Z,18.27
2018-03-22T18:28:46.567Z,13.93
2018-03-22T18:31:14.158Z,11.77
2018-03-22T18:33:42.432Z,12.37
2018-03-22T18:36:10.003Z,20.23
2018-03-22T18:38:38.301Z,14.40
2018-03-22T18:41:05.802Z,16.83
2018-03-22T18:43:33.382Z,13.57
2018-03-22T18:46:00.848Z,15.40
2018-03-22T18:48:28.355Z,10.87
2018-03-22T18:50:56.588Z,19.40
2018-03-22T18:53:24.183Z,17.67
2018-03-22T18:55:51.679Z,12.77
2018-03-22T18:58:19.936Z,16.57
2018-03-22T19:00:47.523Z,16.07
2018-03-22T19:03:14.998Z,12.70
2018-03-22T19:05:42.476Z,14.40
2018-03-22T19:08:09.965Z,16.87
2018-03-22T19:10:38.301Z,11.17
2018-03-22T19:13:05.799Z,12.63
2018-03-22T19:15:33.312Z,14.50
2018-03-22T19:18:01.798Z,11.27
2018-03-22T19:20:29.257Z,16.23
2018-03-22T19:22:57.543Z,12.27
2018-03-22T19:25:26.401Z,11.53
2018-03-22T19:27:53.918Z,11.50
2018-03-22T19:30:21.460Z,12.47
2018-03-22T19:32:49.375Z,10.57
2018-03-22T19:35:19.158Z,10.10
2018-03-22T19:37:46.618Z,13.40
2018-03-22T19:40:14.143Z,9.03
2018-03-22T19:42:41.657Z,12.80
2018-03-22T19:45:09.174Z,7.53
2018-03-22T19:47:36.743Z,11.13
2018-03-22T19:50:04.282Z,7.93
2018-03-22T19:52:32.855Z,8.07
2018-03-22T19:55:01.192Z,8.77
2018-03-22T19:57:28.706Z,9.50
2018-03-22T19:59:57.414Z,13.40
2018-03-22T20:02:25.409Z,14.73
2018-03-22T20:04:52.868Z,14.30
2018-03-22T20:07:20.512Z,11.10
2018-03-22T20:09:48.839Z,8.37
2018-03-22T20:12:16.976Z,7.97
2018-03-22T20:14:44.447Z,9.03
2018-03-22T20:17:11.991Z,10.70
2018-03-22T20:19:39.513Z,25.73
2018-03-22T20:22:07.475Z,10.30
2018-03-22T20:24:35.013Z,15.20
2018-03-22T20:27:02.664Z,17.60
2018-03-22T20:29:30.429Z,15.17
2018-03-22T20:31:57.982Z,11.43
2018-03-22T20:34:26.237Z,35.80
2018-03-22T20:36:53.713Z,13.63
2018-03-22T20:39:21.299Z,16.17
2018-03-22T20:41:48.816Z,15.77
2018-03-22T20:44:17.101Z,10.40
2018-03-22T20:46:44.985Z,19.07
2018-03-22T20:49:15.032Z,12.20
2018-03-22T20:51:42.668Z,13.43
2018-03-22T20:54:10.390Z,19.23
2018-03-22T20:56:38.008Z,18.30
2018-03-22T20:59:05.630Z,14.77
2018-03-22T21:01:33.163Z,13.03
2018-03-22T21:04:00.987Z,21.47
2018-03-22T21:06:28.445Z,10.47
2018-03-22T21:08:56.740Z,10.23
2018-03-22T21:11:24.207Z,12.43
2018-03-22T21:13:51.722Z,10.80
2018-03-22T21:16:19.474Z,11.20
2018-03-22T21:18:46.973Z,19.50
2018-03-22T21:21:14.549Z,15.70
2018-03-22T21:23:42.064Z,12.10
2018-03-22T21:26:09.727Z,24.53
2018-03-22T21:28:38.010Z,16.50
2018-03-22T21:31:08.165Z,12.83
2018-03-22T21:33:36.204Z,14.50
2018-03-22T21:36:03.683Z,11.97
2018-03-22T21:38:31.215Z,18.83
2018-03-22T21:40:59.474Z,14.60
2018-03-22T21:43:27.874Z,12.17
2018-03-22T21:45:55.386Z,17.20
2018-03-22T21:48:23.076Z,13.20
2018-03-22T21:50:51.394Z,13.67
2018-03-22T21:53:18.990Z,26.90
2018-03-22T21:55:46.504Z,29.17
2018-03-22T21:58:14.767Z,18.50
2018-03-22T22:00:42.311Z,14.17
2018-03-22T22:03:10.086Z,27.80
2018-03-22T22:05:37.685Z,27.40
2018-03-22T22:08:05.991Z,19.57
2018-03-22T22:10:34.258Z,18.07
2018-03-22T22:13:01.828Z,29.27
2018-03-22T22:15:30.133Z,20.57
2018-03-22T22:17:57.830Z,20.37
2018-03-22T22:20:25.367Z,19.43
2018-03-22T22:22:52.993Z,17.47
2018-03-22T22:25:20.546Z,17.00
2018-03-22T22:27:48.855Z,16.37
2018-03-22T22:30:17.113Z,16.53
2018-03-22T22:32:44.655Z,27.53
2018-03-22T22:35:12.133Z,19.10
2018-03-22T22:37:39.661Z,29.67
2018-03-22T22:40:07.231Z,24.97
2018-03-22T22:42:34.770Z,17.93
2018-03-22T22:45:02.332Z,19.70
2018-03-22T22:47:30.606Z,16.93
2018-03-22T22:49:58.090Z,20.83
2018-03-22T22:52:25.604Z,22.50
2018-03-22T22:54:53.115Z,29.10
2018-03-22T22:57:20.601Z,28.70
2018-03-22T22:59:48.113Z,21.53
2018-03-22T23:02:16.305Z,20.33
2018-03-22T23:04:43.794Z,24.20
2018-03-22T23:07:11.295Z,17.80
2018-03-22T23:09:38.803Z,16.57
2018-03-22T23:12:07.273Z,18.03
2018-03-22T23:14:34.766Z,18.73
2018-03-22T23:17:02.228Z,28.53
2018-03-22T23:19:29.757Z,26.70
2018-03-22T23:21:58.703Z,33.13
2018-03-22T23:24:27.720Z,21.73
2018-03-22T23:26:56.837Z,28.17
2018-03-22T23:29:28.308Z,19.30
2018-03-22T23:31:55.813Z,21.03
2018-03-22T23:34:23.472Z,23.20
2018-03-22T23:36:51.681Z,23.00
2018-03-22T23:39:19.941Z,33.83
2018-03-22T23:41:47.439Z,37.27
2018-03-22T23:44:14.918Z,15.63
2018-03-22T23:46:42.406Z,16.70
2018-03-22T23:49:09.872Z,29.43
2018-03-22T23:51:37.804Z,25.80
2018-03-22T23:54:05.308Z,29.67
2018-03-22T23:56:32.870Z,23.83
2018-03-22T23:59:00.358Z,25.53
